sensor_id;sensor_type;location;lat;lon;timestamp;P1;durP1;ratioP1;P2;durP2;ratioP2
82230;SDS011;71832;45.138;9.816;2023-09-30T00:00:43;46.00;;;27.83;;
82230;SDS011;71832;45.138;9.816;2023-09-30T00:03:11;39.50;;;25.23;;
82230;SDS011;71832;45.138;9.816;2023-09-30T00:05:40;49.25;;;25.38;;
82230;SDS011;71832;45.138;9.816;2023-09-30T00:08:09;36.25;;;23.05;;
82230;SDS011;71832;45.138;9.816;2023-09-30T00:10:37;42.63;;;25.35;;
82230;SDS011;71832;45.138;9.816;2023-09-30T00:13:05;47.03;;;26.88;;
82230;SDS011;71832;45.138;9.816;2023-09-30T00:15:33;46.65;;;27.95;;
82230;SDS011;71832;45.138;9.816;2023-09-30T00:18:01;42.75;;;27.33;;
82230;SDS011;71832;45.138;9.816;2023-09-30T00:20:30;47.70;;;28.63;;
82230;SDS011;71832;45.138;9.816;2023-09-30T00:22:57;46.97;;;27.63;;
82230;SDS011;71832;45.138;9.816;2023-09-30T00:25:25;43.22;;;26.35;;
82230;SDS011;71832;45.138;9.816;2023-09-30T00:27:53;41.60;;;27.25;;
82230;SDS011;71832;45.138;9.816;2023-09-30T00:30:20;48.15;;;25.77;;
82230;SDS011;71832;45.138;9.816;2023-09-30T00:32:48;41.53;;;24.40;;
82230;SDS011;71832;45.138;9.816;2023-09-30T00:35:16;37.53;;;22.40;;
82230;SDS011;71832;45.138;9.816;2023-09-30T00:37:43;37.88;;;23.05;;
82230;SDS011;71832;45.138;9.816;2023-09-30T00:40:11;43.63;;;23.45;;
82230;SDS011;71832;45.138;9.816;2023-09-30T00:42:39;45.25;;;24.27;;
82230;SDS011;71832;45.138;9.816;2023-09-30T00:45:07;39.42;;;24.45;;
82230;SDS011;71832;45.138;9.816;2023-09-30T00:47:36;45.03;;;25.35;;
82230;SDS011;71832;45.138;9.816;2023-09-30T00:50:05;38.30;;;23.55;;
82230;SDS011;71832;45.138;9.816;2023-09-30T00:52:36;44.17;;;23.90;;
82230;SDS011;71832;45.138;9.816;2023-09-30T00:55:07;44.20;;;25.02;;
82230;SDS011;71832;45.138;9.816;2023-09-30T00:57:36;41.63;;;25.15;;
82230;SDS011;71832;45.138;9.816;2023-09-30T01:00:06;43.15;;;25.60;;
82230;SDS011;71832;45.138;9.816;2023-09-30T01:02:39;39.20;;;23.40;;
82230;SDS011;71832;45.138;9.816;2023-09-30T01:05:10;44.70;;;25.15;;
82230;SDS011;71832;45.138;9.816;2023-09-30T01:07:38;41.15;;;25.05;;
82230;SDS011;71832;45.138;9.816;2023-09-30T01:10:07;41.78;;;24.90;;
82230;SDS011;71832;45.138;9.816;2023-09-30T01:12:36;42.38;;;25.85;;
82230;SDS011;71832;45.138;9.816;2023-09-30T01:15:03;46.25;;;27.95;;
82230;SDS011;71832;45.138;9.816;2023-09-30T01:17:32;48.65;;;29.52;;
82230;SDS011;71832;45.138;9.816;2023-09-30T01:20:01;50.10;;;29.38;;
82230;SDS011;71832;45.138;9.816;2023-09-30T01:22:32;50.88;;;28.35;;
82230;SDS011;71832;45.138;9.816;2023-09-30T01:25:01;41.50;;;24.88;;
82230;SDS011;71832;45.138;9.816;2023-09-30T01:27:30;42.83;;;24.83;;
82230;SDS011;71832;45.138;9.816;2023-09-30T01:29:59;42.50;;;25.10;;
82230;SDS011;71832;45.138;9.816;2023-09-30T01:32:26;45.67;;;26.92;;
82230;SDS011;71832;45.138;9.816;2023-09-30T01:34:55;47.65;;;28.05;;
82230;SDS011;71832;45.138;9.816;2023-09-30T01:37:26;57.53;;;33.10;;
82230;SDS011;71832;45.138;9.816;2023-09-30T01:42:22;47.85;;;28.63;;
82230;SDS011;71832;45.138;9.816;2023-09-30T01:44:49;50.25;;;28.90;;
82230;SDS011;71832;45.138;9.816;2023-09-30T01:47:23;52.13;;;31.60;;
82230;SDS011;71832;45.138;9.816;2023-09-30T01:49:51;48.10;;;27.52;;
82230;SDS011;71832;45.138;9.816;2023-09-30T01:52:19;41.38;;;25.85;;
82230;SDS011;71832;45.138;9.816;2023-09-30T01:54:48;46.30;;;26.20;;
82230;SDS011;71832;45.138;9.816;2023-09-30T01:57:18;48.55;;;29.77;;
82230;SDS011;71832;45.138;9.816;2023-09-30T01:59:46;51.35;;;29.65;;
82230;SDS011;71832;45.138;9.816;2023-09-30T02:02:15;40.78;;;25.65;;
82230;SDS011;71832;45.138;9.816;2023-09-30T02:04:44;35.75;;;22.42;;
82230;SDS011;71832;45.138;9.816;2023-09-30T02:07:12;42.05;;;26.48;;
82230;SDS011;71832;45.138;9.816;2023-09-30T02:09:40;48.13;;;29.00;;
82230;SDS011;71832;45.138;9.816;2023-09-30T02:12:09;58.38;;;32.80;;
82230;SDS011;71832;45.138;9.816;2023-09-30T02:14:38;56.53;;;33.70;;
82230;SDS011;71832;45.138;9.816;2023-09-30T02:17:06;56.17;;;32.45;;
82230;SDS011;71832;45.138;9.816;2023-09-30T02:19:35;46.95;;;28.65;;
82230;SDS011;71832;45.138;9.816;2023-09-30T02:22:03;42.35;;;26.17;;
82230;SDS011;71832;45.138;9.816;2023-09-30T02:24:32;45.40;;;27.83;;
82230;SDS011;71832;45.138;9.816;2023-09-30T02:27:01;54.88;;;30.55;;
82230;SDS011;71832;45.138;9.816;2023-09-30T02:29:29;54.67;;;34.25;;
82230;SDS011;71832;45.138;9.816;2023-09-30T02:31:57;57.28;;;32.90;;
82230;SDS011;71832;45.138;9.816;2023-09-30T02:34:26;54.78;;;31.38;;
82230;SDS011;71832;45.138;9.816;2023-09-30T02:36:57;50.38;;;31.58;;
82230;SDS011;71832;45.138;9.816;2023-09-30T02:39:25;48.28;;;29.33;;
82230;SDS011;71832;45.138;9.816;2023-09-30T02:41:53;50.40;;;29.48;;
82230;SDS011;71832;45.138;9.816;2023-09-30T02:44:22;44.70;;;27.17;;
82230;SDS011;71832;45.138;9.816;2023-09-30T02:46:51;46.22;;;27.63;;
82230;SDS011;71832;45.138;9.816;2023-09-30T02:49:21;57.08;;;29.73;;
82230;SDS011;71832;45.138;9.816;2023-09-30T02:51:48;47.70;;;25.98;;
82230;SDS011;71832;45.138;9.816;2023-09-30T02:54:17;45.97;;;27.60;;
82230;SDS011;71832;45.138;9.816;2023-09-30T02:56:45;48.00;;;28.17;;
82230;SDS011;71832;45.138;9.816;2023-09-30T02:59:14;45.10;;;27.92;;
82230;SDS011;71832;45.138;9.816;2023-09-30T03:01:44;50.50;;;30.23;;
82230;SDS011;71832;45.138;9.816;2023-09-30T03:04:12;55.75;;;32.58;;
82230;SDS011;71832;45.138;9.816;2023-09-30T03:06:45;53.33;;;33.33;;
82230;SDS011;71832;45.138;9.816;2023-09-30T03:09:14;59.60;;;35.25;;
82230;SDS011;71832;45.138;9.816;2023-09-30T03:11:42;51.83;;;31.75;;
82230;SDS011;71832;45.138;9.816;2023-09-30T03:14:10;58.47;;;33.90;;
82230;SDS011;71832;45.138;9.816;2023-09-30T03:16:39;58.90;;;35.33;;
82230;SDS011;71832;45.138;9.816;2023-09-30T03:19:08;56.17;;;32.72;;
82230;SDS011;71832;45.138;9.816;2023-09-30T03:21:37;63.47;;;35.17;;
82230;SDS011;71832;45.138;9.816;2023-09-30T03:24:06;60.67;;;36.20;;
82230;SDS011;71832;45.138;9.816;2023-09-30T03:26:34;58.78;;;34.70;;
82230;SDS011;71832;45.138;9.816;2023-09-30T03:29:02;55.30;;;31.98;;
82230;SDS011;71832;45.138;9.816;2023-09-30T03:31:33;45.92;;;28.10;;
82230;SDS011;71832;45.138;9.816;2023-09-30T03:34:04;42.55;;;25.92;;
82230;SDS011;71832;45.138;9.816;2023-09-30T03:39:01;35.83;;;21.45;;
82230;SDS011;71832;45.138;9.816;2023-09-30T03:41:33;39.17;;;22.85;;
82230;SDS011;71832;45.138;9.816;2023-09-30T03:44:03;43.28;;;23.50;;
82230;SDS011;71832;45.138;9.816;2023-09-30T03:46:32;33.05;;;21.63;;
82230;SDS011;71832;45.138;9.816;2023-09-30T03:48:59;36.40;;;20.63;;
82230;SDS011;71832;45.138;9.816;2023-09-30T03:51:28;43.20;;;22.65;;
82230;SDS011;71832;45.138;9.816;2023-09-30T03:53:57;39.30;;;22.75;;
82230;SDS011;71832;45.138;9.816;2023-09-30T03:56:28;37.40;;;21.80;;
82230;SDS011;71832;45.138;9.816;2023-09-30T03:58:55;39.28;;;22.48;;
82230;SDS011;71832;45.138;9.816;2023-09-30T04:01:23;33.78;;;21.08;;
82230;SDS011;71832;45.138;9.816;2023-09-30T04:03:52;34.60;;;21.55;;
82230;SDS011;71832;45.138;9.816;2023-09-30T04:06:22;39.05;;;22.73;;
82230;SDS011;71832;45.138;9.816;2023-09-30T04:08:51;31.38;;;21.05;;
82230;SDS011;71832;45.138;9.816;2023-09-30T04:11:19;35.33;;;22.20;;
82230;SDS011;71832;45.138;9.816;2023-09-30T04:13:48;32.58;;;21.33;;
82230;SDS011;71832;45.138;9.816;2023-09-30T04:16:17;34.05;;;20.23;;
82230;SDS011;71832;45.138;9.816;2023-09-30T04:18:45;33.38;;;21.52;;
82230;SDS011;71832;45.138;9.816;2023-09-30T04:21:15;35.95;;;21.92;;
82230;SDS011;71832;45.138;9.816;2023-09-30T04:23:43;40.65;;;21.92;;
82230;SDS011;71832;45.138;9.816;2023-09-30T04:26:12;38.13;;;22.80;;
82230;SDS011;71832;45.138;9.816;2023-09-30T04:28:41;38.05;;;21.88;;
82230;SDS011;71832;45.138;9.816;2023-09-30T04:31:09;36.45;;;22.70;;
82230;SDS011;71832;45.138;9.816;2023-09-30T04:33:38;39.20;;;23.58;;
82230;SDS011;71832;45.138;9.816;2023-09-30T04:36:06;39.65;;;22.67;;
82230;SDS011;71832;45.138;9.816;2023-09-30T04:38:35;36.78;;;22.05;;
82230;SDS011;71832;45.138;9.816;2023-09-30T04:41:04;39.15;;;22.63;;
82230;SDS011;71832;45.138;9.816;2023-09-30T04:43:35;34.00;;;23.05;;
82230;SDS011;71832;45.138;9.816;2023-09-30T04:46:06;38.83;;;23.55;;
82230;SDS011;71832;45.138;9.816;2023-09-30T04:48:34;37.17;;;23.48;;
82230;SDS011;71832;45.138;9.816;2023-09-30T04:51:07;38.13;;;23.25;;
82230;SDS011;71832;45.138;9.816;2023-09-30T04:53:35;41.35;;;23.88;;
82230;SDS011;71832;45.138;9.816;2023-09-30T04:56:03;35.35;;;22.85;;
82230;SDS011;71832;45.138;9.816;2023-09-30T04:58:32;42.78;;;23.02;;
82230;SDS011;71832;45.138;9.816;2023-09-30T05:01:00;40.58;;;24.52;;
82230;SDS011;71832;45.138;9.816;2023-09-30T05:03:29;39.10;;;24.73;;
82230;SDS011;71832;45.138;9.816;2023-09-30T05:05:58;40.72;;;22.63;;
82230;SDS011;71832;45.138;9.816;2023-09-30T05:08:26;38.55;;;24.52;;
82230;SDS011;71832;45.138;9.816;2023-09-30T05:10:57;41.63;;;23.50;;
82230;SDS011;71832;45.138;9.816;2023-09-30T05:13:24;41.00;;;23.58;;
82230;SDS011;71832;45.138;9.816;2023-09-30T05:15:52;39.80;;;22.08;;
82230;SDS011;71832;45.138;9.816;2023-09-30T05:18:20;39.75;;;24.35;;
82230;SDS011;71832;45.138;9.816;2023-09-30T05:20:50;41.58;;;25.45;;
82230;SDS011;71832;45.138;9.816;2023-09-30T05:23:18;47.30;;;27.17;;
82230;SDS011;71832;45.138;9.816;2023-09-30T05:25:47;43.95;;;25.08;;
82230;SDS011;71832;45.138;9.816;2023-09-30T05:28:15;47.60;;;26.10;;
82230;SDS011;71832;45.138;9.816;2023-09-30T05:30:42;39.22;;;23.17;;
82230;SDS011;71832;45.138;9.816;2023-09-30T05:33:11;42.80;;;24.90;;
82230;SDS011;71832;45.138;9.816;2023-09-30T05:35:40;43.05;;;25.58;;
82230;SDS011;71832;45.138;9.816;2023-09-30T05:38:09;45.53;;;25.98;;
82230;SDS011;71832;45.138;9.816;2023-09-30T05:40:38;45.00;;;26.48;;
82230;SDS011;71832;45.138;9.816;2023-09-30T05:43:07;43.72;;;26.35;;
82230;SDS011;71832;45.138;9.816;2023-09-30T05:45:39;43.17;;;24.73;;
82230;SDS011;71832;45.138;9.816;2023-09-30T05:48:15;42.85;;;26.40;;
82230;SDS011;71832;45.138;9.816;2023-09-30T05:50:43;45.88;;;27.70;;
82230;SDS011;71832;45.138;9.816;2023-09-30T05:53:12;49.10;;;29.17;;
82230;SDS011;71832;45.138;9.816;2023-09-30T05:55:41;46.95;;;28.10;;
82230;SDS011;71832;45.138;9.816;2023-09-30T05:58:12;48.65;;;29.00;;
82230;SDS011;71832;45.138;9.816;2023-09-30T06:00:42;45.67;;;26.45;;
82230;SDS011;71832;45.138;9.816;2023-09-30T06:03:11;48.15;;;29.08;;
82230;SDS011;71832;45.138;9.816;2023-09-30T06:05:40;50.05;;;28.48;;
82230;SDS011;71832;45.138;9.816;2023-09-30T06:08:09;54.67;;;30.20;;
82230;SDS011;71832;45.138;9.816;2023-09-30T06:10:40;52.50;;;30.63;;
82230;SDS011;71832;45.138;9.816;2023-09-30T06:13:10;59.38;;;31.52;;
82230;SDS011;71832;45.138;9.816;2023-09-30T06:15:40;58.42;;;32.63;;
82230;SDS011;71832;45.138;9.816;2023-09-30T06:18:09;66.90;;;35.38;;
82230;SDS011;71832;45.138;9.816;2023-09-30T06:20:39;59.08;;;33.53;;
82230;SDS011;71832;45.138;9.816;2023-09-30T06:23:08;62.47;;;35.45;;
82230;SDS011;71832;45.138;9.816;2023-09-30T06:25:37;58.00;;;33.90;;
82230;SDS011;71832;45.138;9.816;2023-09-30T06:28:05;67.72;;;38.35;;
82230;SDS011;71832;45.138;9.816;2023-09-30T06:30:34;73.65;;;39.45;;
82230;SDS011;71832;45.138;9.816;2023-09-30T06:33:03;73.93;;;38.60;;
82230;SDS011;71832;45.138;9.816;2023-09-30T06:35:32;66.20;;;37.47;;
82230;SDS011;71832;45.138;9.816;2023-09-30T06:38:03;65.68;;;38.45;;
82230;SDS011;71832;45.138;9.816;2023-09-30T06:40:33;70.00;;;39.28;;
82230;SDS011;71832;45.138;9.816;2023-09-30T06:43:01;66.95;;;39.88;;
82230;SDS011;71832;45.138;9.816;2023-09-30T06:45:31;66.88;;;38.70;;
82230;SDS011;71832;45.138;9.816;2023-09-30T06:47:59;67.25;;;37.92;;
82230;SDS011;71832;45.138;9.816;2023-09-30T06:50:28;65.68;;;37.40;;
82230;SDS011;71832;45.138;9.816;2023-09-30T06:52:57;67.30;;;37.70;;
82230;SDS011;71832;45.138;9.816;2023-09-30T06:55:26;63.53;;;38.55;;
82230;SDS011;71832;45.138;9.816;2023-09-30T06:57:57;67.82;;;39.13;;
82230;SDS011;71832;45.138;9.816;2023-09-30T07:00:26;70.10;;;42.10;;
82230;SDS011;71832;45.138;9.816;2023-09-30T07:02:55;72.88;;;42.25;;
82230;SDS011;71832;45.138;9.816;2023-09-30T07:05:26;75.38;;;41.30;;
82230;SDS011;71832;45.138;9.816;2023-09-30T07:07:55;72.78;;;42.30;;
82230;SDS011;71832;45.138;9.816;2023-09-30T07:10:24;73.07;;;40.53;;
82230;SDS011;71832;45.138;9.816;2023-09-30T07:19:20;72.55;;;40.22;;
82230;SDS011;71832;45.138;9.816;2023-09-30T07:21:52;76.35;;;43.55;;
82230;SDS011;71832;45.138;9.816;2023-09-30T07:24:35;70.70;;;39.92;;
82230;SDS011;71832;45.138;9.816;2023-09-30T07:41:03;65.80;;;36.78;;
82230;SDS011;71832;45.138;9.816;2023-09-30T07:50:49;59.30;;;34.53;;
82230;SDS011;71832;45.138;9.816;2023-09-30T07:53:41;64.35;;;36.63;;
82230;SDS011;71832;45.138;9.816;2023-09-30T07:56:30;65.50;;;35.60;;
82230;SDS011;71832;45.138;9.816;2023-09-30T07:59:11;62.67;;;34.50;;
82230;SDS011;71832;45.138;9.816;2023-09-30T08:13:48;55.63;;;31.77;;
82230;SDS011;71832;45.138;9.816;2023-09-30T08:16:35;59.83;;;34.47;;
82230;SDS011;71832;45.138;9.816;2023-09-30T08:19:09;57.38;;;33.80;;
82230;SDS011;71832;45.138;9.816;2023-09-30T08:21:49;60.25;;;33.60;;
82230;SDS011;71832;45.138;9.816;2023-09-30T08:24:23;54.80;;;31.45;;
82230;SDS011;71832;45.138;9.816;2023-09-30T08:26:50;54.80;;;31.77;;
82230;SDS011;71832;45.138;9.816;2023-09-30T08:29:17;61.08;;;34.60;;
82230;SDS011;71832;45.138;9.816;2023-09-30T08:31:45;61.75;;;33.95;;
82230;SDS011;71832;45.138;9.816;2023-09-30T08:34:12;60.10;;;34.08;;
82230;SDS011;71832;45.138;9.816;2023-09-30T08:36:40;61.70;;;33.95;;
82230;SDS011;71832;45.138;9.816;2023-09-30T08:39:08;63.60;;;32.97;;
82230;SDS011;71832;45.138;9.816;2023-09-30T08:41:37;55.30;;;33.35;;
82230;SDS011;71832;45.138;9.816;2023-09-30T08:44:05;66.63;;;34.60;;
82230;SDS011;71832;45.138;9.816;2023-09-30T08:46:33;59.33;;;34.47;;
82230;SDS011;71832;45.138;9.816;2023-09-30T08:49:01;60.95;;;33.38;;
82230;SDS011;71832;45.138;9.816;2023-09-30T08:51:32;59.40;;;34.17;;
82230;SDS011;71832;45.138;9.816;2023-09-30T08:53:59;55.22;;;32.53;;
82230;SDS011;71832;45.138;9.816;2023-09-30T08:56:30;58.65;;;32.63;;
82230;SDS011;71832;45.138;9.816;2023-09-30T08:58:59;52.28;;;32.10;;
82230;SDS011;71832;45.138;9.816;2023-09-30T09:01:29;60.53;;;33.78;;
82230;SDS011;71832;45.138;9.816;2023-09-30T09:03:58;50.47;;;29.80;;
82230;SDS011;71832;45.138;9.816;2023-09-30T09:06:29;58.05;;;33.78;;
82230;SDS011;71832;45.138;9.816;2023-09-30T09:09:17;55.17;;;30.05;;
82230;SDS011;71832;45.138;9.816;2023-09-30T09:11:45;52.38;;;30.55;;
82230;SDS011;71832;45.138;9.816;2023-09-30T09:14:13;46.85;;;29.55;;
82230;SDS011;71832;45.138;9.816;2023-09-30T09:17:02;50.22;;;31.60;;
82230;SDS011;71832;45.138;9.816;2023-09-30T09:19:30;48.08;;;28.98;;
82230;SDS011;71832;45.138;9.816;2023-09-30T09:21:58;49.60;;;29.13;;
82230;SDS011;71832;45.138;9.816;2023-09-30T09:24:30;46.03;;;28.77;;
82230;SDS011;71832;45.138;9.816;2023-09-30T09:27:08;51.25;;;30.50;;
82230;SDS011;71832;45.138;9.816;2023-09-30T09:29:38;55.03;;;30.45;;
82230;SDS011;71832;45.138;9.816;2023-09-30T09:34:42;45.08;;;26.73;;
82230;SDS011;71832;45.138;9.816;2023-09-30T09:37:21;41.00;;;26.83;;
82230;SDS011;71832;45.138;9.816;2023-09-30T09:39:50;43.63;;;25.70;;
82230;SDS011;71832;45.138;9.816;2023-09-30T09:42:31;47.15;;;27.55;;
82230;SDS011;71832;45.138;9.816;2023-09-30T09:45:01;36.30;;;22.52;;
82230;SDS011;71832;45.138;9.816;2023-09-30T09:47:31;39.33;;;24.38;;
82230;SDS011;71832;45.138;9.816;2023-09-30T09:50:02;38.70;;;23.17;;
82230;SDS011;71832;45.138;9.816;2023-09-30T09:52:32;40.17;;;22.85;;
82230;SDS011;71832;45.138;9.816;2023-09-30T09:55:02;37.83;;;22.88;;
82230;SDS011;71832;45.138;9.816;2023-09-30T09:57:32;34.95;;;21.95;;
82230;SDS011;71832;45.138;9.816;2023-09-30T10:00:02;35.25;;;22.05;;
82230;SDS011;71832;45.138;9.816;2023-09-30T10:02:38;36.95;;;23.67;;
82230;SDS011;71832;45.138;9.816;2023-09-30T10:05:07;40.58;;;21.48;;
82230;SDS011;71832;45.138;9.816;2023-09-30T10:07:38;39.28;;;22.13;;
82230;SDS011;71832;45.138;9.816;2023-09-30T10:10:13;32.92;;;21.60;;
82230;SDS011;71832;45.138;9.816;2023-09-30T10:12:44;33.72;;;20.67;;
82230;SDS011;71832;45.138;9.816;2023-09-30T10:20:34;29.27;;;18.90;;
82230;SDS011;71832;45.138;9.816;2023-09-30T10:25:51;31.58;;;17.67;;
82230;SDS011;71832;45.138;9.816;2023-09-30T10:28:45;28.75;;;17.70;;
82230;SDS011;71832;45.138;9.816;2023-09-30T10:31:13;25.13;;;15.48;;
82230;SDS011;71832;45.138;9.816;2023-09-30T10:36:34;26.30;;;16.17;;
82230;SDS011;71832;45.138;9.816;2023-09-30T10:39:06;23.17;;;15.73;;
82230;SDS011;71832;45.138;9.816;2023-09-30T10:44:51;21.60;;;15.35;;
82230;SDS011;71832;45.138;9.816;2023-09-30T10:46:59;29.55;;;16.45;;
82230;SDS011;71832;45.138;9.816;2023-09-30T10:49:46;20.10;;;13.43;;
82230;SDS011;71832;45.138;9.816;2023-09-30T10:52:23;22.10;;;13.05;;
82230;SDS011;71832;45.138;9.816;2023-09-30T10:55:01;19.42;;;12.68;;
82230;SDS011;71832;45.138;9.816;2023-09-30T10:57:31;21.10;;;13.32;;
82230;SDS011;71832;45.138;9.816;2023-09-30T11:00:19;20.05;;;14.38;;
82230;SDS011;71832;45.138;9.816;2023-09-30T11:02:47;28.05;;;16.17;;
82230;SDS011;71832;45.138;9.816;2023-09-30T11:05:17;25.30;;;14.95;;
82230;SDS011;71832;45.138;9.816;2023-09-30T11:07:48;28.38;;;14.68;;
82230;SDS011;71832;45.138;9.816;2023-09-30T11:10:17;21.45;;;12.70;;
82230;SDS011;71832;45.138;9.816;2023-09-30T11:13:06;19.92;;;12.88;;
82230;SDS011;71832;45.138;9.816;2023-09-30T11:15:33;21.48;;;11.60;;
82230;SDS011;71832;45.138;9.816;2023-09-30T11:18:21;19.60;;;11.77;;
82230;SDS011;71832;45.138;9.816;2023-09-30T11:20:48;25.35;;;14.35;;
82230;SDS011;71832;45.138;9.816;2023-09-30T11:23:17;19.17;;;13.20;;
82230;SDS011;71832;45.138;9.816;2023-09-30T11:25:44;21.92;;;13.68;;
82230;SDS011;71832;45.138;9.816;2023-09-30T11:28:16;19.45;;;12.32;;
82230;SDS011;71832;45.138;9.816;2023-09-30T11:31:07;18.02;;;10.70;;
82230;SDS011;71832;45.138;9.816;2023-09-30T11:33:33;22.50;;;12.45;;
82230;SDS011;71832;45.138;9.816;2023-09-30T11:36:15;19.50;;;12.65;;
82230;SDS011;71832;45.138;9.816;2023-09-30T11:38:44;24.20;;;12.10;;
82230;SDS011;71832;45.138;9.816;2023-09-30T11:41:13;24.88;;;12.50;;
82230;SDS011;71832;45.138;9.816;2023-09-30T11:44:27;21.98;;;12.02;;
82230;SDS011;71832;45.138;9.816;2023-09-30T11:46:33;25.75;;;13.52;;
82230;SDS011;71832;45.138;9.816;2023-09-30T11:49:25;20.88;;;12.27;;
82230;SDS011;71832;45.138;9.816;2023-09-30T11:51:59;20.35;;;13.00;;
82230;SDS011;71832;45.138;9.816;2023-09-30T11:54:35;19.73;;;11.73;;
82230;SDS011;71832;45.138;9.816;2023-09-30T11:57:14;19.30;;;11.15;;
82230;SDS011;71832;45.138;9.816;2023-09-30T11:59:43;26.50;;;13.43;;
82230;SDS011;71832;45.138;9.816;2023-09-30T12:02:13;19.70;;;11.90;;
82230;SDS011;71832;45.138;9.816;2023-09-30T12:04:43;18.80;;;12.02;;
82230;SDS011;71832;45.138;9.816;2023-09-30T12:07:13;22.85;;;13.05;;
82230;SDS011;71832;45.138;9.816;2023-09-30T12:09:41;22.92;;;15.40;;
82230;SDS011;71832;45.138;9.816;2023-09-30T12:12:09;27.35;;;16.08;;
82230;SDS011;71832;45.138;9.816;2023-09-30T12:14:40;27.63;;;14.75;;
82230;SDS011;71832;45.138;9.816;2023-09-30T12:17:09;22.55;;;12.93;;
82230;SDS011;71832;45.138;9.816;2023-09-30T12:19:40;18.20;;;11.15;;
82230;SDS011;71832;45.138;9.816;2023-09-30T12:22:07;24.92;;;13.02;;
82230;SDS011;71832;45.138;9.816;2023-09-30T12:24:36;24.05;;;14.60;;
82230;SDS011;71832;45.138;9.816;2023-09-30T12:27:05;21.45;;;11.88;;
82230;SDS011;71832;45.138;9.816;2023-09-30T12:29:33;23.27;;;12.55;;
82230;SDS011;71832;45.138;9.816;2023-09-30T12:32:01;21.73;;;12.55;;
82230;SDS011;71832;45.138;9.816;2023-09-30T12:34:31;21.33;;;12.85;;
82230;SDS011;71832;45.138;9.816;2023-09-30T12:36:59;23.25;;;13.25;;
82230;SDS011;71832;45.138;9.816;2023-09-30T12:39:28;25.40;;;14.32;;
82230;SDS011;71832;45.138;9.816;2023-09-30T12:41:59;19.73;;;12.55;;
82230;SDS011;71832;45.138;9.816;2023-09-30T12:44:28;17.80;;;12.15;;
82230;SDS011;71832;45.138;9.816;2023-09-30T12:46:56;19.45;;;12.48;;
82230;SDS011;71832;45.138;9.816;2023-09-30T12:49:24;20.52;;;12.13;;
82230;SDS011;71832;45.138;9.816;2023-09-30T12:51:51;20.70;;;13.02;;
82230;SDS011;71832;45.138;9.816;2023-09-30T12:54:19;21.63;;;13.00;;
82230;SDS011;71832;45.138;9.816;2023-09-30T12:56:46;21.42;;;12.43;;
82230;SDS011;71832;45.138;9.816;2023-09-30T12:59:16;20.25;;;12.13;;
82230;SDS011;71832;45.138;9.816;2023-09-30T13:01:45;21.60;;;12.38;;
82230;SDS011;71832;45.138;9.816;2023-09-30T13:04:13;20.65;;;11.57;;
82230;SDS011;71832;45.138;9.816;2023-09-30T13:06:41;22.95;;;13.02;;
82230;SDS011;71832;45.138;9.816;2023-09-30T13:09:10;18.27;;;11.52;;
82230;SDS011;71832;45.138;9.816;2023-09-30T13:11:38;21.45;;;11.90;;
82230;SDS011;71832;45.138;9.816;2023-09-30T13:14:07;24.20;;;12.98;;
82230;SDS011;71832;45.138;9.816;2023-09-30T13:16:35;20.27;;;12.35;;
82230;SDS011;71832;45.138;9.816;2023-09-30T13:19:04;19.45;;;12.90;;
82230;SDS011;71832;45.138;9.816;2023-09-30T13:21:32;22.10;;;12.63;;
82230;SDS011;71832;45.138;9.816;2023-09-30T13:24:00;19.48;;;12.10;;
82230;SDS011;71832;45.138;9.816;2023-09-30T13:26:32;20.48;;;11.23;;
82230;SDS011;71832;45.138;9.816;2023-09-30T13:29:00;19.10;;;11.40;;
82230;SDS011;71832;45.138;9.816;2023-09-30T13:31:31;20.67;;;11.75;;
82230;SDS011;71832;45.138;9.816;2023-09-30T13:33:59;19.90;;;11.93;;
82230;SDS011;71832;45.138;9.816;2023-09-30T13:36:28;16.70;;;11.05;;
82230;SDS011;71832;45.138;9.816;2023-09-30T13:38:56;18.02;;;11.73;;
82230;SDS011;71832;45.138;9.816;2023-09-30T13:41:24;18.45;;;11.88;;
82230;SDS011;71832;45.138;9.816;2023-09-30T13:43:53;19.92;;;13.07;;
82230;SDS011;71832;45.138;9.816;2023-09-30T13:46:22;20.88;;;13.32;;
82230;SDS011;71832;45.138;9.816;2023-09-30T13:48:52;16.50;;;11.95;;
82230;SDS011;71832;45.138;9.816;2023-09-30T13:51:20;16.33;;;10.82;;
82230;SDS011;71832;45.138;9.816;2023-09-30T13:53:49;16.67;;;11.68;;
82230;SDS011;71832;45.138;9.816;2023-09-30T13:56:19;20.65;;;11.40;;
82230;SDS011;71832;45.138;9.816;2023-09-30T13:58:47;21.38;;;12.30;;
82230;SDS011;71832;45.138;9.816;2023-09-30T14:01:16;20.20;;;11.63;;
82230;SDS011;71832;45.138;9.816;2023-09-30T14:03:46;18.42;;;12.70;;
82230;SDS011;71832;45.138;9.816;2023-09-30T14:06:14;18.08;;;10.75;;
82230;SDS011;71832;45.138;9.816;2023-09-30T14:08:42;19.23;;;11.32;;
82230;SDS011;71832;45.138;9.816;2023-09-30T14:11:10;18.60;;;11.73;;
82230;SDS011;71832;45.138;9.816;2023-09-30T14:13:39;15.70;;;10.38;;
82230;SDS011;71832;45.138;9.816;2023-09-30T14:16:08;16.02;;;10.98;;
82230;SDS011;71832;45.138;9.816;2023-09-30T14:18:36;16.75;;;10.88;;
82230;SDS011;71832;45.138;9.816;2023-09-30T14:21:05;19.17;;;10.52;;
82230;SDS011;71832;45.138;9.816;2023-09-30T14:23:32;15.73;;;10.32;;
82230;SDS011;71832;45.138;9.816;2023-09-30T14:26:00;25.77;;;14.07;;
82230;SDS011;71832;45.138;9.816;2023-09-30T14:28:36;21.63;;;12.10;;
82230;SDS011;71832;45.138;9.816;2023-09-30T14:31:05;21.00;;;10.73;;
82230;SDS011;71832;45.138;9.816;2023-09-30T14:33:33;20.83;;;12.55;;
82230;SDS011;71832;45.138;9.816;2023-09-30T14:36:02;19.45;;;11.48;;
82230;SDS011;71832;45.138;9.816;2023-09-30T14:38:31;17.27;;;11.70;;
82230;SDS011;71832;45.138;9.816;2023-09-30T14:40:59;20.13;;;12.52;;
82230;SDS011;71832;45.138;9.816;2023-09-30T14:43:28;15.35;;;11.00;;
82230;SDS011;71832;45.138;9.816;2023-09-30T14:45:55;17.35;;;10.07;;
82230;SDS011;71832;45.138;9.816;2023-09-30T14:48:23;19.27;;;12.45;;
82230;SDS011;71832;45.138;9.816;2023-09-30T14:50:51;17.60;;;11.02;;
82230;SDS011;71832;45.138;9.816;2023-09-30T14:53:19;26.05;;;11.30;;
82230;SDS011;71832;45.138;9.816;2023-09-30T14:55:48;17.30;;;10.63;;
82230;SDS011;71832;45.138;9.816;2023-09-30T14:58:17;18.95;;;9.60;;
82230;SDS011;71832;45.138;9.816;2023-09-30T15:00:46;14.35;;;9.52;;
82230;SDS011;71832;45.138;9.816;2023-09-30T15:03:14;15.05;;;9.85;;
82230;SDS011;71832;45.138;9.816;2023-09-30T15:05:43;15.93;;;9.80;;
82230;SDS011;71832;45.138;9.816;2023-09-30T15:08:12;16.65;;;10.52;;
82230;SDS011;71832;45.138;9.816;2023-09-30T15:10:40;15.35;;;9.63;;
82230;SDS011;71832;45.138;9.816;2023-09-30T15:13:09;16.70;;;9.95;;
82230;SDS011;71832;45.138;9.816;2023-09-30T15:15:38;17.98;;;10.45;;
82230;SDS011;71832;45.138;9.816;2023-09-30T15:18:07;19.70;;;11.50;;
82230;SDS011;71832;45.138;9.816;2023-09-30T15:20:37;16.42;;;10.13;;
82230;SDS011;71832;45.138;9.816;2023-09-30T15:23:06;21.65;;;10.65;;
82230;SDS011;71832;45.138;9.816;2023-09-30T15:25:39;17.58;;;10.45;;
82230;SDS011;71832;45.138;9.816;2023-09-30T15:28:09;13.10;;;9.32;;
82230;SDS011;71832;45.138;9.816;2023-09-30T15:30:38;15.40;;;10.10;;
82230;SDS011;71832;45.138;9.816;2023-09-30T15:33:07;14.48;;;9.45;;
82230;SDS011;71832;45.138;9.816;2023-09-30T15:35:36;17.45;;;10.23;;
82230;SDS011;71832;45.138;9.816;2023-09-30T15:38:05;17.25;;;9.77;;